Time;durP1;ratioP1;P1;durP2;ratioP2;P2;SDS_P1;SDS_P2;PMS_P1;PMS_P2;Temp;Humidity;BMP_temperature;BMP_pressure;BME280_temperature;BME280_humidity;BME280_pressure;Samples;Min_cycle;Max_cycle;Signal;HPM_P1;HPM_P2
2022/09/29 00:00:28;;;;;;;0.82;0.52;;;7.60;99.90;;;;;;5107384;27;38230;-58
2022/09/29 00:02:55;;;;;;;3.38;1.00;;;7.60;99.90;;;;;;5106321;27;40970;-58
2022/09/29 00:05:23;;;;;;;2.47;1.10;;;7.60;99.90;;;;;;5108821;27;37358;-58
2022/09/29 00:07:50;;;;;;;4.30;1.50;;;7.70;99.90;;;;;;5105957;27;35412;-58
2022/09/29 00:10:19;;;;;;;3.15;0.70;;;7.60;99.90;;;;;;5106717;27;37532;-58
2022/09/29 00:12:46;;;;;;;1.42;0.63;;;7.80;99.90;;;;;;5107405;27;37834;-58
2022/09/29 00:15:14;;;;;;;4.22;0.77;;;7.70;99.90;;;;;;5108169;27;37253;-58
2022/09/29 00:17:41;;;;;;;1.40;0.60;;;7.80;99.90;;;;;;5106603;27;35255;-58
2022/09/29 00:20:09;;;;;;;0.68;0.30;;;7.70;99.90;;;;;;5108630;27;38381;-58
2022/09/29 00:22:36;;;;;;;5.78;0.60;;;7.70;99.90;;;;;;5108278;27;39119;-58
2022/09/29 00:25:04;;;;;;;4.47;0.70;;;7.70;99.90;;;;;;5106529;27;37171;-58
2022/09/29 00:27:33;;;;;;;14.48;1.30;;;7.70;99.90;;;;;;5104718;27;38562;-58
2022/09/29 00:30:00;;;;;;;4.72;0.52;;;7.60;99.90;;;;;;5107300;27;37103;-58
2022/09/29 00:32:27;;;;;;;1.67;0.47;;;7.60;99.90;;;;;;5106763;27;39253;-58
2022/09/29 00:34:54;;;;;;;18.65;1.20;;;7.60;99.90;;;;;;5108416;27;37379;-58
2022/09/29 00:37:22;;;;;;;14.32;1.10;;;7.60;99.90;;;;;;5106216;27;37570;-58
2022/09/29 00:39:49;;;;;;;16.65;1.10;;;7.50;99.90;;;;;;5108106;27;38985;-58
2022/09/29 00:42:18;;;;;;;54.40;2.78;;;7.50;99.90;;;;;;5104991;27;36743;-58
2022/09/29 00:45:00;;;;;;;16.42;1.30;;;7.40;99.90;;;;;;5108238;27;36450;-58
2022/09/29 00:47:29;;;;;;;12.93;1.10;;;7.40;99.90;;;;;;5107461;27;37222;-58
2022/09/29 00:50:01;;;;;;;18.25;1.40;;;7.40;99.90;;;;;;5105294;27;37716;-58
2022/09/29 00:52:34;;;;;;;38.30;2.28;;;7.40;99.90;;;;;;5105791;27;36551;-58
2022/09/29 00:55:07;;;;;;;13.23;1.00;;;7.40;99.90;;;;;;5107621;27;38363;-58
2022/09/29 00:57:38;;;;;;;10.73;1.38;;;7.40;99.90;;;;;;5107310;27;20664;-58
2022/09/29 01:00:09;;;;;;;27.63;1.75;;;7.40;99.90;;;;;;5106165;27;37373;-58
2022/09/29 01:02:40;;;;;;;9.20;0.85;;;7.40;99.90;;;;;;5105818;27;38831;-58
2022/09/29 01:05:13;;;;;;;8.02;0.80;;;7.30;99.90;;;;;;5108124;27;38386;-58
2022/09/29 01:07:43;;;;;;;2.08;0.60;;;7.30;99.90;;;;;;5105637;27;39055;-58
2022/09/29 01:10:12;;;;;;;4.85;0.50;;;7.30;99.90;;;;;;5106686;27;38934;-58
2022/09/29 01:12:39;;;;;;;8.02;0.60;;;7.20;99.90;;;;;;5107441;27;38999;-58
2022/09/29 01:15:09;;;;;;;2.65;0.73;;;7.20;99.90;;;;;;5107495;27;36171;-58
2022/09/29 01:17:36;;;;;;;16.98;1.40;;;7.10;99.90;;;;;;5105814;27;37023;-58
2022/09/29 01:20:11;;;;;;;3.42;0.95;;;7.20;99.90;;;;;;5107429;27;36458;-58
2022/09/29 01:23:39;;;;;;;18.63;1.30;;;7.10;99.90;;;;;;5106227;27;37494;-58
2022/09/29 01:26:49;;;;;;;24.38;1.65;;;7.10;99.90;;;;;;5093546;27;37716;-58
2022/09/29 01:29:49;;;;;;;15.30;1.27;;;7.10;99.90;;;;;;5106659;27;37269;-58
2022/09/29 01:32:23;;;;;;;12.93;1.35;;;7.10;99.90;;;;;;5100781;27;37386;-58
2022/09/29 01:35:00;;;;;;;24.58;1.42;;;7.00;99.90;;;;;;5108630;27;38217;-58
2022/09/29 01:37:40;;;;;;;5.07;0.85;;;7.00;99.90;;;;;;5106215;27;37660;-58
2022/09/29 01:40:13;;;;;;;5.45;1.02;;;7.10;99.90;;;;;;5106859;27;35349;-58
2022/09/29 01:42:51;;;;;;;16.38;1.52;;;7.10;99.90;;;;;;5105961;27;36262;-58
2022/09/29 01:45:24;;;;;;;12.90;1.48;;;7.10;99.90;;;;;;5106963;27;35682;-58
2022/09/29 01:47:57;;;;;;;13.45;1.13;;;7.00;99.90;;;;;;5105168;27;37270;-58
2022/09/29 01:50:30;;;;;;;13.55;1.30;;;6.90;99.90;;;;;;5107987;27;35261;-58
2022/09/29 01:53:04;;;;;;;5.10;0.90;;;6.90;99.90;;;;;;5104924;27;37868;-58
2022/09/29 01:55:32;;;;;;;;;;;6.90;99.90;;;;;;5107004;27;38234;-58
2022/09/29 01:58:02;;;;;;;2.35;1.20;;;6.90;99.90;;;;;;5106510;27;36952;-58
2022/09/29 02:00:32;;;;;;;10.18;1.25;;;7.00;99.90;;;;;;5106099;27;36156;-58
2022/09/29 02:03:08;;;;;;;16.10;1.17;;;7.00;99.90;;;;;;5102974;27;36592;-58
2022/09/29 02:05:41;;;;;;;14.57;1.15;;;7.00;99.90;;;;;;5107735;27;37602;-58
2022/09/29 02:08:12;;;;;;;9.05;1.05;;;7.00;99.90;;;;;;5106423;27;37119;-58
2022/09/29 02:10:45;;;;;;;9.07;1.20;;;7.00;99.90;;;;;;5107383;27;35955;-58
2022/09/29 02:13:16;;;;;;;8.60;1.00;;;6.90;99.90;;;;;;5108215;27;37690;-58
2022/09/29 02:15:46;;;;;;;3.92;1.02;;;6.90;99.90;;;;;;5107703;27;37555;-58
2022/09/29 02:18:20;;;;;;;5.95;1.20;;;6.90;99.90;;;;;;5106005;27;40347;-58
2022/09/29 02:20:49;;;;;;;15.93;1.40;;;6.90;99.90;;;;;;5107638;27;36561;-58
2022/09/29 02:23:17;;;;;;;32.55;2.35;;;6.90;99.90;;;;;;5105571;27;39326;-58
2022/09/29 02:25:47;;;;;;;34.13;2.60;;;6.90;99.90;;;;;;5107334;27;37948;-58
2022/09/29 02:28:15;;;;;;;9.55;1.73;;;6.90;99.90;;;;;;5107343;27;37909;-58
2022/09/29 02:30:42;;;;;;;5.28;1.20;;;6.90;99.90;;;;;;5107460;27;37991;-58
2022/09/29 02:33:20;;;;;;;13.40;1.90;;;6.90;99.90;;;;;;5106777;27;37624;-57
2022/09/29 02:35:56;;;;;;;11.95;1.77;;;6.90;99.90;;;;;;5106476;27;38637;-58
2022/09/29 02:38:35;;;;;;;16.20;1.17;;;6.90;99.90;;;;;;5104618;27;39011;-58
2022/09/29 02:41:10;;;;;;;1.10;0.70;;;6.90;99.90;;;;;;5106855;27;36610;-57
2022/09/29 02:43:54;;;;;;;8.93;1.42;;;6.90;99.90;;;;;;5105726;27;38529;-58
2022/09/29 02:46:36;;;;;;;26.83;1.85;;;6.90;99.90;;;;;;5106824;27;38615;-58
2022/09/29 02:49:30;;;;;;;6.32;1.02;;;6.90;99.90;;;;;;5104967;27;38824;-58
2022/09/29 02:52:01;;;;;;;7.72;0.80;;;6.90;99.90;;;;;;5105718;27;37785;-58
2022/09/29 02:54:47;;;;;;;15.38;1.45;;;7.00;99.90;;;;;;5106336;27;37452;-58
2022/09/29 02:57:20;;;;;;;19.73;1.55;;;6.80;99.90;;;;;;5107001;27;36514;-58
2022/09/29 02:59:54;;;;;;;7.57;1.10;;;6.70;99.90;;;;;;5105928;27;38645;-58
2022/09/29 03:02:25;;;;;;;61.03;3.17;;;6.70;99.90;;;;;;5105262;27;37222;-58
2022/09/29 03:04:54;;;;;;;168.57;7.93;;;6.60;99.90;;;;;;5105802;27;40008;-58
2022/09/29 03:07:22;;;;;;;36.33;2.58;;;6.70;99.90;;;;;;5105762;27;39701;-58
2022/09/29 03:09:49;;;;;;;138.65;7.20;;;6.60;99.90;;;;;;5105378;27;36857;-58
2022/09/29 03:12:17;;;;;;;74.57;4.32;;;6.70;99.90;;;;;;5105651;27;36271;-57
2022/09/29 03:14:44;;;;;;;39.58;2.60;;;6.70;99.90;;;;;;5106152;27;37693;-58
2022/09/29 03:17:12;;;;;;;40.63;2.50;;;6.70;99.90;;;;;;5109601;27;39233;-58
2022/09/29 03:19:39;;;;;;;95.30;5.03;;;6.70;99.90;;;;;;5108695;27;37916;-58
2022/09/29 03:22:08;;;;;;;58.53;3.08;;;6.70;99.90;;;;;;5108859;27;36505;-58
2022/09/29 03:24:35;;;;;;;8.60;2.20;;;6.70;99.90;;;;;;5109376;27;37520;-58
2022/09/29 03:27:03;;;;;;;12.90;1.70;;;6.70;99.90;;;;;;5107892;27;37657;-58
2022/09/29 03:29:30;;;;;;;39.33;2.28;;;6.70;99.90;;;;;;5110025;27;36159;-58
2022/09/29 03:31:58;;;;;;;21.15;1.90;;;6.70;99.90;;;;;;5108887;27;36653;-58
2022/09/29 03:34:26;;;;;;;17.35;1.45;;;6.80;99.90;;;;;;5110658;27;37416;-58
2022/09/29 03:36:53;;;;;;;32.58;2.20;;;6.70;99.90;;;;;;5109582;27;36584;-58
2022/09/29 03:39:22;;;;;;;15.30;1.27;;;6.70;99.90;;;;;;5110411;27;36844;-58
2022/09/29 03:41:50;;;;;;;12.18;1.80;;;6.70;99.90;;;;;;5109435;27;37876;-58
2022/09/29 03:44:17;;;;;;;16.58;1.40;;;6.70;99.90;;;;;;5110030;27;37497;-57
2022/09/29 03:46:45;;;;;;;13.20;1.60;;;6.60;99.90;;;;;;5109908;27;37622;-57
2022/09/29 03:49:12;;;;;;;12.80;1.60;;;6.60;99.90;;;;;;5108936;27;36107;-58
2022/09/29 03:51:39;;;;;;;2.00;1.10;;;6.60;99.90;;;;;;5109915;27;36475;-58
2022/09/29 03:54:07;;;;;;;1.60;1.02;;;6.60;99.90;;;;;;5109043;27;38791;-58
2022/09/29 03:56:36;;;;;;;1.70;1.08;;;6.60;99.90;;;;;;5109379;27;36576;-58
2022/09/29 03:59:04;;;;;;;10.68;1.40;;;6.60;99.90;;;;;;5108642;27;38426;-58
2022/09/29 04:01:31;;;;;;;11.65;1.75;;;6.60;99.90;;;;;;5106422;27;38067;-58
2022/09/29 04:03:59;;;;;;;3.15;1.50;;;6.60;99.90;;;;;;5106010;27;39360;-58
2022/09/29 04:06:26;;;;;;;8.98;1.83;;;6.50;99.90;;;;;;5107292;27;38556;-58
2022/09/29 04:08:54;;;;;;;22.20;2.95;;;6.60;99.90;;;;;;5109270;27;36218;-58
2022/09/29 04:11:21;;;;;;;8.02;2.30;;;6.60;99.90;;;;;;5108935;27;36514;-58
2022/09/29 04:13:50;;;;;;;8.25;1.90;;;6.70;99.90;;;;;;5109058;27;38334;-58
2022/09/29 04:16:17;;;;;;;12.68;1.92;;;6.70;99.90;;;;;;5107891;27;38648;-58
2022/09/29 04:18:44;;;;;;;11.18;1.80;;;6.70;99.90;;;;;;5109696;27;36802;-58
2022/09/29 04:21:12;;;;;;;11.93;1.90;;;6.70;99.90;;;;;;5109503;27;36569;-58
2022/09/29 04:23:40;;;;;;;12.20;1.50;;;6.70;99.90;;;;;;5108079;27;37336;-58
2022/09/29 04:26:07;;;;;;;9.60;1.50;;;6.70;99.90;;;;;;5108030;27;38356;-57
2022/09/29 04:28:36;;;;;;;3.22;1.73;;;6.60;99.90;;;;;;5108280;27;37346;-58
2022/09/29 04:31:05;;;;;;;2.13;1.30;;;6.60;99.90;;;;;;5108836;27;36821;-58
2022/09/29 04:33:33;;;;;;;2.35;1.30;;;6.60;99.90;;;;;;5108412;27;36558;-58
2022/09/29 04:36:01;;;;;;;3.83;2.35;;;6.60;99.90;;;;;;5106770;27;38002;-58
2022/09/29 04:38:28;;;;;;;6.65;2.90;;;6.60;99.90;;;;;;5104560;27;37243;-58
2022/09/29 04:40:55;;;;;;;4.65;2.53;;;6.70;99.90;;;;;;5107775;27;36619;-58
2022/09/29 04:43:23;;;;;;;17.83;3.08;;;6.70;99.90;;;;;;5108217;27;37155;-58
2022/09/29 04:45:50;;;;;;;9.48;2.22;;;6.70;99.90;;;;;;5107812;27;37831;-58
2022/09/29 04:48:19;;;;;;;13.30;1.92;;;6.70;99.90;;;;;;5108380;27;38257;-58
2022/09/29 04:50:47;;;;;;;4.47;1.40;;;6.70;99.90;;;;;;5107975;27;35266;-58
2022/09/29 04:53:14;;;;;;;3.15;1.30;;;6.60;99.90;;;;;;5109438;27;36341;-58
2022/09/29 04:55:42;;;;;;;2.80;1.58;;;6.60;99.90;;;;;;5106254;27;37720;-58
2022/09/29 04:58:09;;;;;;;6.07;3.78;;;6.60;99.90;;;;;;5109193;27;36192;-58
2022/09/29 05:00:36;;;;;;;7.50;5.15;;;6.50;99.90;;;;;;5108403;27;35980;-58
2022/09/29 05:03:04;;;;;;;7.32;4.47;;;6.50;99.90;;;;;;5106004;27;38035;-58
2022/09/29 05:05:32;;;;;;;6.45;4.35;;;6.60;99.90;;;;;;5104477;27;36434;-58
2022/09/29 05:08:03;;;;;;;9.15;4.15;;;6.70;99.90;;;;;;5108219;27;36235;-58
2022/09/29 05:10:30;;;;;;;6.25;4.00;;;6.70;99.90;;;;;;5105933;27;37178;-58
2022/09/29 05:12:57;;;;;;;6.03;4.13;;;6.80;99.90;;;;;;5107302;27;38848;-58
2022/09/29 05:15:25;;;;;;;6.90;4.60;;;6.90;99.90;;;;;;5105565;27;38284;-58
2022/09/29 05:17:52;;;;;;;7.93;5.15;;;7.00;99.90;;;;;;5105668;27;37534;-58
2022/09/29 05:20:19;;;;;;;6.38;4.25;;;7.00;99.90;;;;;;5106880;27;36911;-58
2022/09/29 05:22:48;;;;;;;7.05;4.90;;;7.10;99.90;;;;;;5105079;27;38046;-58
2022/09/29 05:25:15;;;;;;;8.57;5.10;;;7.10;99.90;;;;;;5106384;27;37253;-58
2022/09/29 05:27:43;;;;;;;6.85;4.57;;;7.20;99.90;;;;;;5105390;27;37329;-58
2022/09/29 05:30:11;;;;;;;7.57;4.82;;;7.20;99.90;;;;;;5107135;27;36338;-58
2022/09/29 05:32:38;;;;;;;13.90;4.70;;;7.20;99.90;;;;;;5105037;27;38791;-58
2022/09/29 05:35:06;;;;;;;13.93;3.40;;;7.20;99.90;;;;;;5104717;27;38921;-58
2022/09/29 05:37:34;;;;;;;17.73;2.95;;;7.20;99.90;;;;;;5099668;27;37582;-58
2022/09/29 05:40:03;;;;;;;5.78;3.20;;;7.10;99.90;;;;;;5104631;27;36906;-58
2022/09/29 05:42:30;;;;;;;5.78;3.80;;;7.00;99.90;;;;;;5104354;27;37664;-58
2022/09/29 05:44:58;;;;;;;5.78;3.40;;;7.00;99.90;;;;;;5106024;27;37845;-58
2022/09/29 05:47:25;;;;;;;27.42;3.72;;;7.00;99.90;;;;;;5104564;27;38474;-58
2022/09/29 05:49:52;;;;;;;8.10;3.10;;;7.00;99.90;;;;;;5104328;27;36104;-58
2022/09/29 05:52:20;;;;;;;6.70;2.97;;;6.90;99.90;;;;;;5106054;27;37586;-58
2022/09/29 05:54:49;;;;;;;5.00;2.78;;;6.90;99.90;;;;;;5105613;27;39040;-58
2022/09/29 05:57:18;;;;;;;19.77;3.45;;;6.90;99.90;;;;;;5107173;27;36891;-58
2022/09/29 05:59:46;;;;;;;38.65;3.85;;;6.90;99.90;;;;;;5104739;27;35379;-58
2022/09/29 06:02:13;;;;;;;28.40;3.13;;;7.30;99.90;;;;;;5102892;27;37504;-58
2022/09/29 06:04:40;;;;;;;21.83;2.60;;;6.90;99.90;;;;;;5107187;27;36698;-58
2022/09/29 06:07:08;;;;;;;20.60;3.00;;;6.90;99.90;;;;;;5107201;27;37463;-58
2022/09/29 06:09:35;;;;;;;20.00;2.60;;;6.90;99.90;;;;;;5105724;27;36893;-57
2022/09/29 06:12:03;;;;;;;13.68;2.50;;;6.80;99.90;;;;;;5106345;27;36310;-58
2022/09/29 06:14:32;;;;;;;32.88;3.92;;;6.90;99.90;;;;;;5106154;27;37328;-58
2022/09/29 06:16:59;;;;;;;12.18;3.00;;;6.90;99.90;;;;;;5107035;27;38111;-58
2022/09/29 06:19:26;;;;;;;24.95;3.38;;;6.80;99.90;;;;;;5104966;27;36847;-58
2022/09/29 06:21:53;;;;;;;28.73;3.30;;;6.90;99.90;;;;;;5104026;27;36357;-58
2022/09/29 06:24:21;;;;;;;7.88;2.80;;;6.90;99.90;;;;;;5104609;27;38777;-58
2022/09/29 06:26:48;;;;;;;11.25;2.80;;;6.90;99.90;;;;;;5106092;27;38032;-58
2022/09/29 06:29:15;;;;;;;11.02;3.00;;;6.80;99.90;;;;;;5105367;27;37301;-58
2022/09/29 06:31:44;;;;;;;9.35;3.20;;;6.90;99.90;;;;;;5104026;27;37625;-58
2022/09/29 06:34:11;;;;;;;11.20;2.85;;;6.90;99.90;;;;;;5106899;27;38784;-58
2022/09/29 06:39:27;;;;;;;11.82;3.40;;;7.00;99.90;;;;;;5106426;27;37733;-58
2022/09/29 06:41:55;;;;;;;14.50;2.85;;;7.00;99.90;;;;;;5104669;27;38914;-57
2022/09/29 06:44:24;;;;;;;4.50;2.33;;;6.90;99.90;;;;;;5106259;27;36524;-58
2022/09/29 06:46:54;;;;;;;5.50;2.67;;;6.90;99.90;;;;;;5104584;27;38400;-58
2022/09/29 06:49:22;;;;;;;7.03;2.83;;;7.00;99.90;;;;;;5107545;27;38237;-58
2022/09/29 06:51:50;;;;;;;5.07;2.88;;;7.00;99.90;;;;;;5110304;27;37542;-58
2022/09/29 06:54:20;;;;;;;7.05;2.88;;;7.00;99.90;;;;;;5108226;27;36848;-58
2022/09/29 06:56:48;;;;;;;5.85;2.95;;;7.00;99.90;;;;;;5106733;27;36240;-58
2022/09/29 06:59:16;;;;;;;4.40;2.78;;;7.00;99.90;;;;;;5110623;27;37098;-58
2022/09/29 07:01:44;;;;;;;5.25;3.13;;;7.10;99.90;;;;;;5109900;27;37688;-58
2022/09/29 07:04:12;;;;;;;6.63;3.97;;;7.10;99.90;;;;;;5110026;27;38713;-58
2022/09/29 07:06:40;;;;;;;6.70;3.97;;;7.20;99.90;;;;;;5110084;27;38346;-58
2022/09/29 07:09:09;;;;;;;7.82;4.18;;;7.20;99.90;;;;;;5110965;27;35284;-58
2022/09/29 07:11:38;;;;;;;8.52;6.00;;;7.30;99.90;;;;;;5108265;27;37445;-58
2022/09/29 07:14:05;;;;;;;9.07;6.18;;;7.40;99.90;;;;;;5109117;27;37065;-58
2022/09/29 07:16:33;;;;;;;8.45;6.20;;;7.50;99.90;;;;;;5109077;27;37173;-58
2022/09/29 07:19:00;;;;;;;8.77;5.78;;;7.60;99.90;;;;;;5106781;27;36304;-58
2022/09/29 07:21:29;;;;;;;10.50;7.50;;;7.70;99.90;;;;;;5108233;27;37584;-58
2022/09/29 07:23:56;;;;;;;9.15;6.30;;;7.80;99.90;;;;;;5108370;27;39405;-58
2022/09/29 07:26:23;;;;;;;9.38;6.72;;;7.90;99.90;;;;;;5108592;27;37478;-58
2022/09/29 07:28:50;;;;;;;10.10;6.88;;;7.90;99.90;;;;;;5109233;27;35446;-58
2022/09/29 07:31:20;;;;;;;12.70;8.40;;;8.00;99.90;;;;;;5108384;27;37246;-58
2022/09/29 07:33:48;;;;;;;9.88;7.82;;;8.10;99.90;;;;;;5109265;27;37358;-58
2022/09/29 07:36:18;;;;;;;15.68;8.98;;;8.20;99.90;;;;;;5110242;27;37234;-58
2022/09/29 07:38:48;;;;;;;13.98;10.32;;;8.30;99.90;;;;;;5109553;27;37334;-58
2022/09/29 07:41:16;;;;;;;12.30;9.35;;;8.40;99.90;;;;;;5108137;27;37424;-58
2022/09/29 07:43:44;;;;;;;11.80;8.65;;;8.40;99.90;;;;;;5109552;27;38132;-58
2022/09/29 07:46:11;;;;;;;12.13;9.00;;;8.50;99.90;;;;;;5109472;27;39273;-58
2022/09/29 07:48:39;;;;;;;13.82;10.57;;;8.60;99.90;;;;;;5107709;27;35218;-58
2022/09/29 07:51:08;;;;;;;13.48;10.32;;;8.70;99.90;;;;;;5107031;27;37820;-58
2022/09/29 07:53:36;;;;;;;13.98;9.82;;;8.80;99.90;;;;;;5109922;27;37288;-57
2022/09/29 07:56:07;;;;;;;16.15;12.73;;;8.90;99.90;;;;;;5104496;27;38189;-58
2022/09/29 07:58:36;;;;;;;17.55;12.35;;;8.90;99.90;;;;;;5106212;27;37478;-58
2022/09/29 08:01:05;;;;;;;16.67;11.98;;;9.10;99.90;;;;;;5106574;27;39003;-58
2022/09/29 08:03:32;;;;;;;18.13;14.20;;;9.10;99.90;;;;;;5106102;27;38797;-58
2022/09/29 08:06:00;;;;;;;18.17;13.00;;;9.20;99.90;;;;;;5101831;27;37426;-58
2022/09/29 08:08:27;;;;;;;21.50;14.52;;;9.30;99.90;;;;;;5106007;27;37674;-58
2022/09/29 08:11:01;;;;;;;21.77;15.70;;;9.40;99.90;;;;;;5107689;27;38551;-58
2022/09/29 08:13:31;;;;;;;18.67;13.75;;;9.50;99.90;;;;;;5105714;27;38286;-58
2022/09/29 08:15:59;;;;;;;19.85;14.48;;;9.60;99.90;;;;;;5105936;27;38931;-58
2022/09/29 08:18:27;;;;;;;22.10;15.35;;;9.70;99.90;;;;;;5107376;27;37379;-58
2022/09/29 08:20:57;;;;;;;22.63;16.45;;;9.70;99.90;;;;;;5110305;27;36197;-58
2022/09/29 08:23:24;;;;;;;20.48;15.10;;;9.90;99.90;;;;;;5106471;27;38827;-58
2022/09/29 08:26:00;;;;;;;21.88;15.82;;;9.90;99.90;;;;;;5109804;27;37488;-58
2022/09/29 08:28:27;;;;;;;24.73;17.35;;;10.00;99.90;;;;;;5108363;27;36790;-58
2022/09/29 08:30:56;;;;;;;20.70;16.60;;;10.10;99.90;;;;;;5108122;27;36386;-58
2022/09/29 08:33:23;;;;;;;23.30;16.83;;;10.20;99.90;;;;;;5108804;27;36372;-58
2022/09/29 08:35:56;;;;;;;22.63;16.65;;;10.30;99.90;;;;;;5108351;27;38507;-58
2022/09/29 08:38:23;;;;;;;25.77;16.50;;;10.40;99.90;;;;;;5109488;27;38162;-58
2022/09/29 08:40:51;;;;;;;22.45;15.80;;;10.50;99.90;;;;;;5109361;27;38098;-58
2022/09/29 08:43:26;;;;;;;20.33;15.82;;;10.60;99.90;;;;;;5108016;27;37945;-58
2022/09/29 08:46:01;;;;;;;22.15;16.52;;;10.70;99.90;;;;;;5110188;27;37148;-57
2022/09/29 08:48:34;;;;;;;20.25;14.70;;;10.80;99.90;;;;;;5107387;27;37029;-58
2022/09/29 08:51:05;;;;;;;20.73;15.77;;;10.90;99.90;;;;;;5100473;27;37601;-58
2022/09/29 08:53:37;;;;;;;22.33;16.17;;;11.00;99.90;;;;;;5105303;27;36511;-58
2022/09/29 08:56:06;;;;;;;19.85;14.57;;;11.10;99.90;;;;;;5105998;27;38737;-58
2022/09/29 08:58:36;;;;;;;23.58;15.98;;;11.10;99.90;;;;;;5103043;27;36968;-58
2022/09/29 09:01:16;;;;;;;25.88;15.40;;;11.20;99.90;;;;;;5106241;27;37806;-58
2022/09/29 09:04:11;;;;;;;21.38;14.68;;;11.30;99.90;;;;;;5102628;27;37814;-58
2022/09/29 09:06:54;;;;;;;15.77;12.25;;;11.40;99.90;;;;;;5102152;27;37973;-58
2022/09/29 09:09:49;;;;;;;17.02;12.85;;;11.50;99.90;;;;;;5105264;27;35569;-58
2022/09/29 09:12:39;;;;;;;17.58;12.40;;;11.60;99.90;;;;;;5104928;27;38044;-58
2022/09/29 09:15:20;;;;;;;17.42;13.00;;;11.70;99.90;;;;;;5105140;27;38659;-58
2022/09/29 09:18:18;;;;;;;17.60;10.32;;;11.80;99.90;;;;;;5106761;27;39637;-58
2022/09/29 09:20:56;;;;;;;13.63;8.77;;;11.90;99.90;;;;;;5106375;27;37168;-58
2022/09/29 09:23:27;;;;;;;11.20;7.72;;;12.00;99.90;;;;;;5104132;27;38439;-58
2022/09/29 09:25:57;;;;;;;11.15;6.55;;;12.00;99.90;;;;;;5106579;27;39539;-58
2022/09/29 09:28:28;;;;;;;11.63;6.38;;;12.20;99.90;;;;;;5104229;27;38452;-58
2022/09/29 09:30:59;;;;;;;9.57;5.95;;;12.20;99.90;;;;;;5106781;27;37150;-58
2022/09/29 09:33:33;;;;;;;8.27;5.03;;;12.20;99.90;;;;;;5104931;27;38161;-58
2022/09/29 09:36:05;;;;;;;8.55;5.43;;;12.30;99.90;;;;;;5105988;27;37575;-58
2022/09/29 09:38:44;;;;;;;7.88;5.22;;;12.40;99.90;;;;;;5106508;27;38367;-58
2022/09/29 09:41:14;;;;;;;6.93;4.25;;;12.50;99.90;;;;;;5106480;27;37704;-58
2022/09/29 09:43:45;;;;;;;7.80;4.70;;;12.60;99.90;;;;;;5106691;27;37587;-58
2022/09/29 09:46:19;;;;;;;7.72;4.45;;;12.70;99.90;;;;;;5105685;27;37741;-58
2022/09/29 09:48:57;;;;;;;7.95;4.80;;;12.70;99.90;;;;;;5106219;27;37117;-58
2022/09/29 09:51:33;;;;;;;7.10;4.30;;;12.80;99.90;;;;;;5107907;27;35413;-58
2022/09/29 09:54:06;;;;;;;7.63;4.10;;;12.90;99.90;;;;;;5106010;27;37728;-58
2022/09/29 09:56:52;;;;;;;7.97;4.45;;;13.00;99.90;;;;;;5106472;27;39316;-58
2022/09/29 09:59:42;;;;;;;7.55;4.07;;;13.10;99.90;;;;;;5104761;27;39169;-58
2022/09/29 10:02:18;;;;;;;7.57;4.45;;;13.20;99.90;;;;;;5103652;27;35259;-58
2022/09/29 10:04:50;;;;;;;6.72;4.60;;;13.30;99.90;;;;;;5107423;27;38070;-58
2022/09/29 10:07:19;;;;;;;10.50;4.68;;;13.40;99.90;;;;;;5107395;27;37379;-57
2022/09/29 10:09:47;;;;;;;6.60;4.38;;;13.50;99.90;;;;;;5107131;27;37578;-58
2022/09/29 10:12:17;;;;;;;6.88;4.32;;;13.60;99.90;;;;;;5107229;27;36542;-58
2022/09/29 10:14:52;;;;;;;6.68;4.05;;;13.70;99.90;;;;;;5108153;27;35548;-58
2022/09/29 10:17:23;;;;;;;5.85;3.22;;;13.70;99.90;;;;;;5107898;27;39171;-58
2022/09/29 10:19:57;;;;;;;5.57;2.65;;;13.80;99.90;;;;;;5107629;27;35884;-58
2022/09/29 10:22:26;;;;;;;5.50;2.53;;;14.00;99.90;;;;;;5107419;27;35386;-58
2022/09/29 10:24:57;;;;;;;5.25;3.03;;;14.00;99.90;;;;;;5108900;27;36239;-58
2022/09/29 10:27:25;;;;;;;4.93;2.65;;;14.20;99.90;;;;;;5111262;27;37317;-58
2022/09/29 10:29:53;;;;;;;5.35;2.30;;;14.20;99.90;;;;;;5111209;27;36190;-58
2022/09/29 10:32:35;;;;;;;4.25;1.80;;;14.40;99.90;;;;;;5110404;27;36031;-58
2022/09/29 10:35:10;;;;;;;4.63;2.42;;;14.50;99.90;;;;;;5111821;27;37329;-58
2022/09/29 10:37:39;;;;;;;4.68;1.92;;;14.60;99.90;;;;;;5110765;27;38442;-58
2022/09/29 10:40:19;;;;;;;4.70;2.30;;;14.60;99.90;;;;;;5109851;27;37395;-58
2022/09/29 10:42:49;;;;;;;4.85;2.10;;;14.70;99.90;;;;;;5110963;27;37345;-58
2022/09/29 10:45:19;;;;;;;4.15;2.17;;;14.80;99.90;;;;;;5110897;27;37067;-58
2022/09/29 10:47:48;;;;;;;4.03;1.80;;;14.80;99.90;;;;;;5111623;27;38601;-58
2022/09/29 10:50:20;;;;;;;3.67;1.73;;;14.90;99.90;;;;;;5110262;27;37597;-58
2022/09/29 10:52:52;;;;;;;4.13;1.95;;;15.00;99.90;;;;;;5110656;27;38868;-58
2022/09/29 10:55:23;;;;;;;6.93;2.60;;;15.10;99.90;;;;;;5111428;27;37746;-58
2022/09/29 10:57:52;;;;;;;5.55;2.13;;;15.10;99.90;;;;;;5111291;27;37708;-58
2022/09/29 11:00:33;;;;;;;5.07;2.10;;;15.20;99.90;;;;;;5110307;27;37604;-58
2022/09/29 11:03:08;;;;;;;4.45;1.92;;;15.30;99.90;;;;;;5108124;27;37249;-58
2022/09/29 11:05:38;;;;;;;3.97;1.58;;;15.30;99.90;;;;;;5109788;27;39741;-58
2022/09/29 11:08:12;;;;;;;4.50;1.80;;;15.30;99.90;;;;;;5110556;27;37100;-58
2022/09/29 11:10:47;;;;;;;3.72;1.90;;;15.10;99.90;;;;;;5110510;27;38486;-58
2022/09/29 11:13:38;;;;;;;5.88;2.83;;;14.90;99.90;;;;;;5110435;27;36538;-58
2022/09/29 11:16:14;;;;;;;4.72;2.30;;;14.90;99.90;;;;;;5108629;27;37533;-58
2022/09/29 11:18:43;;;;;;;4.97;2.38;;;15.00;99.90;;;;;;5108373;27;36530;-59
2022/09/29 11:21:44;;;;;;;3.83;1.70;;;15.20;99.90;;;;;;5108115;27;36998;-58
2022/09/29 11:24:17;;;;;;;5.57;1.70;;;15.40;99.90;;;;;;5108568;27;37099;-58
2022/09/29 11:26:51;;;;;;;3.55;1.88;;;15.50;99.90;;;;;;5108566;27;38323;-58
2022/09/29 11:29:33;;;;;;;3.75;1.48;;;15.60;99.90;;;;;;5109431;27;38588;-58
2022/09/29 11:32:23;;;;;;;3.55;1.15;;;15.60;99.90;;;;;;5108473;27;36863;-58
2022/09/29 11:35:06;;;;;;;2.78;1.40;;;15.40;99.90;;;;;;5109509;27;36680;-58
2022/09/29 11:38:05;;;;;;;2.97;1.00;;;15.10;99.90;;;;;;5107366;27;38895;-58
2022/09/29 11:40:44;;;;;;;2.33;1.00;;;14.90;99.90;;;;;;5094708;27;38802;-58
2022/09/29 11:43:27;;;;;;;3.00;0.95;;;14.70;99.90;;;;;;5105759;27;35910;-59
2022/09/29 11:46:02;;;;;;;1.63;0.70;;;14.70;99.90;;;;;;5106046;27;38026;-58
2022/09/29 11:49:02;;;;;;;3.25;0.85;;;14.80;99.90;;;;;;5105617;27;38424;-58
2022/09/29 11:51:39;;;;;;;2.90;0.80;;;15.00;99.90;;;;;;5102213;27;37855;-58
2022/09/29 11:54:35;;;;;;;1.98;1.10;;;15.10;99.90;;;;;;5107513;27;38758;-58
2022/09/29 11:57:09;;;;;;;2.03;0.80;;;15.20;99.90;;;;;;5109063;27;36593;-58
2022/09/29 11:59:48;;;;;;;2.35;0.90;;;15.30;99.90;;;;;;5108899;27;38165;-58
2022/09/29 12:03:05;;;;;;;2.45;0.98;;;15.30;99.90;;;;;;5108768;27;38626;-58
2022/09/29 12:05:43;;;;;;;3.70;0.90;;;15.40;99.90;;;;;;5089982;27;37253;-58
2022/09/29 12:08:26;;;;;;;2.42;0.82;;;15.40;99.90;;;;;;5107627;27;35460;-58
2022/09/29 12:11:04;;;;;;;1.73;1.05;;;15.40;99.90;;;;;;5109819;27;37482;-59
2022/09/29 12:13:41;;;;;;;2.90;1.00;;;15.30;99.90;;;;;;5109097;27;36432;-58
2022/09/29 12:16:13;;;;;;;2.78;0.90;;;15.20;99.90;;;;;;5107889;27;38373;-58
2022/09/29 12:18:46;;;;;;;2.03;0.80;;;15.10;99.90;;;;;;5108146;27;36440;-58
2022/09/29 12:21:17;;;;;;;1.88;1.00;;;15.00;99.90;;;;;;5108926;27;38975;-58
2022/09/29 12:23:47;;;;;;;2.78;1.10;;;14.90;99.90;;;;;;5107905;27;37663;-58
2022/09/29 12:26:19;;;;;;;4.13;0.95;;;14.80;99.90;;;;;;5107792;27;37299;-58
2022/09/29 12:28:51;;;;;;;1.83;0.80;;;14.80;99.90;;;;;;5107668;27;36638;-58
2022/09/29 12:31:25;;;;;;;3.13;0.65;;;14.70;99.90;;;;;;5108125;27;36441;-58
2022/09/29 12:33:57;;;;;;;3.80;0.73;;;14.70;99.90;;;;;;5108900;27;37808;-58
2022/09/29 12:36:44;;;;;;;2.95;0.73;;;14.60;99.90;;;;;;5108153;27;39715;-58
2022/09/29 12:39:24;;;;;;;1.95;0.50;;;14.60;99.90;;;;;;5108882;27;35502;-58
2022/09/29 12:42:01;;;;;;;2.65;0.55;;;14.50;99.90;;;;;;5108559;27;38657;-58
2022/09/29 12:44:37;;;;;;;1.42;0.47;;;14.40;99.90;;;;;;5107614;27;38005;-58
2022/09/29 12:47:12;;;;;;;2.75;0.43;;;14.40;99.90;;;;;;5107655;27;36116;-58
2022/09/29 12:49:49;;;;;;;2.85;1.05;;;14.30;99.90;;;;;;5106819;27;36703;-58
2022/09/29 12:52:25;;;;;;;1.00;0.60;;;14.20;99.90;;;;;;5105673;27;37320;-58
2022/09/29 12:54:58;;;;;;;1.42;0.68;;;14.10;99.90;;;;;;5106904;27;37576;-58
2022/09/29 12:57:32;;;;;;;1.05;0.60;;;14.10;99.90;;;;;;5108955;27;36176;-58
2022/09/29 13:00:04;;;;;;;1.35;0.50;;;14.00;99.90;;;;;;5108988;27;37172;-58
2022/09/29 13:03:01;;;;;;;0.93;0.30;;;14.00;99.90;;;;;;5108602;27;37472;-58
2022/09/29 13:05:49;;;;;;;0.75;0.50;;;13.90;99.90;;;;;;5107871;27;38538;-58
2022/09/29 13:08:44;;;;;;;2.17;0.63;;;13.90;99.90;;;;;;5108624;27;36228;-58
2022/09/29 13:11:33;;;;;;;1.58;0.40;;;13.80;99.90;;;;;;5108783;27;36595;-58
2022/09/29 13:14:40;;;;;;;1.25;0.55;;;13.70;99.90;;;;;;5108671;27;37363;-58
2022/09/29 13:17:20;;;;;;;3.33;0.82;;;13.70;99.90;;;;;;5108516;27;38418;-58